sensor_id;sensor_type;location;lat;lon;timestamp;temperature;humidity
18597;DHT22;9428;50.950;6.912;2023-02-28T00:00:46;3.00;99.90
18597;DHT22;9428;50.950;6.912;2023-02-28T00:03:33;3.10;99.90
18597;DHT22;9428;50.950;6.912;2023-02-28T00:06:22;2.70;99.90
18597;DHT22;9428;50.950;6.912;2023-02-28T00:09:11;2.70;99.90
18597;DHT22;9428;50.950;6.912;2023-02-28T00:11:58;2.80;99.90
18597;DHT22;9428;50.950;6.912;2023-02-28T00:14:45;2.70;99.90
18597;DHT22;9428;50.950;6.912;2023-02-28T00:17:33;2.60;99.90
18597;DHT22;9428;50.950;6.912;2023-02-28T00:20:20;3.30;99.90
18597;DHT22;9428;50.950;6.912;2023-02-28T00:23:08;2.70;99.90
18597;DHT22;9428;50.950;6.912;2023-02-28T00:25:56;3.10;99.90
18597;DHT22;9428;50.950;6.912;2023-02-28T00:28:44;2.70;99.90
18597;DHT22;9428;50.950;6.912;2023-02-28T00:31:31;3.20;99.90
18597;DHT22;9428;50.950;6.912;2023-02-28T00:34:18;3.00;99.90
18597;DHT22;9428;50.950;6.912;2023-02-28T00:37:07;2.40;99.90
18597;DHT22;9428;50.950;6.912;2023-02-28T00:39:54;2.20;99.90
18597;DHT22;9428;50.950;6.912;2023-02-28T00:42:43;2.20;99.90
18597;DHT22;9428;50.950;6.912;2023-02-28T00:45:30;2.40;99.90
18597;DHT22;9428;50.950;6.912;2023-02-28T00:48:18;2.90;99.90
18597;DHT22;9428;50.950;6.912;2023-02-28T00:51:05;2.40;99.90
18597;DHT22;9428;50.950;6.912;2023-02-28T00:53:52;2.80;99.90
18597;DHT22;9428;50.950;6.912;2023-02-28T00:56:40;2.40;99.90
18597;DHT22;9428;50.950;6.912;2023-02-28T00:59:28;2.30;99.90
18597;DHT22;9428;50.950;6.912;2023-02-28T01:02:15;2.50;99.90
18597;DHT22;9428;50.950;6.912;2023-02-28T01:05:04;2.10;99.90
18597;DHT22;9428;50.950;6.912;2023-02-28T01:07:52;2.30;99.90
18597;DHT22;9428;50.950;6.912;2023-02-28T01:10:39;2.50;99.90
18597;DHT22;9428;50.950;6.912;2023-02-28T01:13:27;2.50;99.90
18597;DHT22;9428;50.950;6.912;2023-02-28T01:16:15;2.30;99.90
18597;DHT22;9428;50.950;6.912;2023-02-28T01:19:03;2.20;99.90
18597;DHT22;9428;50.950;6.912;2023-02-28T01:21:50;2.60;99.90
18597;DHT22;9428;50.950;6.912;2023-02-28T01:24:37;2.30;99.90
18597;DHT22;9428;50.950;6.912;2023-02-28T01:27:24;3.10;99.90
18597;DHT22;9428;50.950;6.912;2023-02-28T01:30:12;2.60;99.90
18597;DHT22;9428;50.950;6.912;2023-02-28T01:33:01;2.30;99.90
18597;DHT22;9428;50.950;6.912;2023-02-28T01:35:49;2.20;99.90
18597;DHT22;9428;50.950;6.912;2023-02-28T01:38:36;2.40;99.90
18597;DHT22;9428;50.950;6.912;2023-02-28T01:41:26;2.10;99.90
18597;DHT22;9428;50.950;6.912;2023-02-28T01:45:08;2.70;99.90
18597;DHT22;9428;50.950;6.912;2023-02-28T01:48:05;2.10;99.90
18597;DHT22;9428;50.950;6.912;2023-02-28T01:50:55;2.00;99.90
18597;DHT22;9428;50.950;6.912;2023-02-28T01:53:47;2.50;99.90
18597;DHT22;9428;50.950;6.912;2023-02-28T01:56:36;2.00;99.90
18597;DHT22;9428;50.950;6.912;2023-02-28T01:59:28;2.00;99.90
18597;DHT22;9428;50.950;6.912;2023-02-28T02:02:18;2.10;99.90
18597;DHT22;9428;50.950;6.912;2023-02-28T02:05:09;2.90;99.90
18597;DHT22;9428;50.950;6.912;2023-02-28T02:08:01;2.30;99.90
18597;DHT22;9428;50.950;6.912;2023-02-28T02:10:50;2.00;99.90
18597;DHT22;9428;50.950;6.912;2023-02-28T02:14:05;2.80;99.90
18597;DHT22;9428;50.950;6.912;2023-02-28T02:17:06;2.00;99.90
18597;DHT22;9428;50.950;6.912;2023-02-28T02:20:27;2.10;99.90
18597;DHT22;9428;50.950;6.912;2023-02-28T02:23:45;2.10;99.90
18597;DHT22;9428;50.950;6.912;2023-02-28T02:30:18;2.10;99.90
18597;DHT22;9428;50.950;6.912;2023-02-28T02:33:23;2.10;99.90
18597;DHT22;9428;50.950;6.912;2023-02-28T02:36:18;2.10;99.90
18597;DHT22;9428;50.950;6.912;2023-02-28T02:39:13;2.20;99.90
18597;DHT22;9428;50.950;6.912;2023-02-28T02:42:04;2.20;99.90
18597;DHT22;9428;50.950;6.912;2023-02-28T02:45:00;2.10;99.90
18597;DHT22;9428;50.950;6.912;2023-02-28T02:47:49;2.00;99.90
18597;DHT22;9428;50.950;6.912;2023-02-28T02:50:39;2.20;99.90
18597;DHT22;9428;50.950;6.912;2023-02-28T02:53:32;2.30;99.90
18597;DHT22;9428;50.950;6.912;2023-02-28T02:56:24;2.00;99.90
18597;DHT22;9428;50.950;6.912;2023-02-28T02:59:15;2.60;99.90
18597;DHT22;9428;50.950;6.912;2023-02-28T03:02:10;2.20;99.90
18597;DHT22;9428;50.950;6.912;2023-02-28T03:05:00;2.20;99.90
18597;DHT22;9428;50.950;6.912;2023-02-28T03:07:49;2.20;99.90
18597;DHT22;9428;50.950;6.912;2023-02-28T03:10:40;2.80;99.90
18597;DHT22;9428;50.950;6.912;2023-02-28T03:13:46;2.20;99.90
18597;DHT22;9428;50.950;6.912;2023-02-28T03:16:54;2.10;99.90
18597;DHT22;9428;50.950;6.912;2023-02-28T03:20:01;2.20;99.90
18597;DHT22;9428;50.950;6.912;2023-02-28T03:22:57;2.20;99.90
18597;DHT22;9428;50.950;6.912;2023-02-28T03:25:56;2.00;99.90
18597;DHT22;9428;50.950;6.912;2023-02-28T03:28:53;2.10;99.90
18597;DHT22;9428;50.950;6.912;2023-02-28T03:31:46;2.00;99.90
18597;DHT22;9428;50.950;6.912;2023-02-28T03:34:37;1.90;99.90
18597;DHT22;9428;50.950;6.912;2023-02-28T03:37:26;2.10;99.90
18597;DHT22;9428;50.950;6.912;2023-02-28T03:40:17;2.00;99.90
18597;DHT22;9428;50.950;6.912;2023-02-28T03:43:12;1.90;99.90
18597;DHT22;9428;50.950;6.912;2023-02-28T03:46:05;2.00;99.90
18597;DHT22;9428;50.950;6.912;2023-02-28T03:48:56;2.00;99.90
18597;DHT22;9428;50.950;6.912;2023-02-28T03:51:45;1.70;99.90
18597;DHT22;9428;50.950;6.912;2023-02-28T03:54:35;1.70;99.90
18597;DHT22;9428;50.950;6.912;2023-02-28T03:57:31;1.90;99.90
18597;DHT22;9428;50.950;6.912;2023-02-28T04:00:26;1.80;99.90
18597;DHT22;9428;50.950;6.912;2023-02-28T04:03:15;2.40;99.90
18597;DHT22;9428;50.950;6.912;2023-02-28T04:06:03;1.70;99.90
18597;DHT22;9428;50.950;6.912;2023-02-28T04:08:51;1.80;99.90
18597;DHT22;9428;50.950;6.912;2023-02-28T04:11:40;1.80;99.90
18597;DHT22;9428;50.950;6.912;2023-02-28T04:14:27;1.70;99.90
18597;DHT22;9428;50.950;6.912;2023-02-28T04:17:16;1.60;99.90
18597;DHT22;9428;50.950;6.912;2023-02-28T04:20:04;1.90;99.90
18597;DHT22;9428;50.950;6.912;2023-02-28T04:22:55;1.70;99.90
18597;DHT22;9428;50.950;6.912;2023-02-28T04:25:42;1.70;99.90
18597;DHT22;9428;50.950;6.912;2023-02-28T04:28:29;1.50;99.90
18597;DHT22;9428;50.950;6.912;2023-02-28T04:31:17;1.50;99.90
18597;DHT22;9428;50.950;6.912;2023-02-28T04:34:05;1.70;99.90
18597;DHT22;9428;50.950;6.912;2023-02-28T04:36:53;1.50;99.90
18597;DHT22;9428;50.950;6.912;2023-02-28T04:39:41;2.20;99.90
18597;DHT22;9428;50.950;6.912;2023-02-28T04:42:29;1.50;99.90
18597;DHT22;9428;50.950;6.912;2023-02-28T04:45:21;1.40;99.90
18597;DHT22;9428;50.950;6.912;2023-02-28T04:48:08;1.50;99.90
18597;DHT22;9428;50.950;6.912;2023-02-28T04:51:00;1.60;99.90
18597;DHT22;9428;50.950;6.912;2023-02-28T04:53:48;1.50;99.90
18597;DHT22;9428;50.950;6.912;2023-02-28T04:56:35;1.60;99.90
18597;DHT22;9428;50.950;6.912;2023-02-28T04:59:22;1.60;99.90
18597;DHT22;9428;50.950;6.912;2023-02-28T05:02:10;2.30;99.90
18597;DHT22;9428;50.950;6.912;2023-02-28T05:04:57;1.70;99.90
18597;DHT22;9428;50.950;6.912;2023-02-28T05:07:46;1.70;99.90
18597;DHT22;9428;50.950;6.912;2023-02-28T05:10:33;1.70;99.90
18597;DHT22;9428;50.950;6.912;2023-02-28T05:13:20;1.70;99.90
18597;DHT22;9428;50.950;6.912;2023-02-28T05:16:08;1.70;99.90
18597;DHT22;9428;50.950;6.912;2023-02-28T05:18:56;1.70;99.90
18597;DHT22;9428;50.950;6.912;2023-02-28T05:21:51;1.70;99.90
18597;DHT22;9428;50.950;6.912;2023-02-28T05:24:40;1.80;99.90
18597;DHT22;9428;50.950;6.912;2023-02-28T05:27:28;1.70;99.90
18597;DHT22;9428;50.950;6.912;2023-02-28T05:30:15;1.60;99.90
18597;DHT22;9428;50.950;6.912;2023-02-28T05:33:03;1.70;99.90
18597;DHT22;9428;50.950;6.912;2023-02-28T05:35:50;1.50;99.90
18597;DHT22;9428;50.950;6.912;2023-02-28T05:38:37;1.60;99.90
18597;DHT22;9428;50.950;6.912;2023-02-28T05:41:26;1.40;99.90
18597;DHT22;9428;50.950;6.912;2023-02-28T05:44:13;1.60;99.90
18597;DHT22;9428;50.950;6.912;2023-02-28T05:47:00;1.70;99.90
18597;DHT22;9428;50.950;6.912;2023-02-28T05:49:48;1.60;99.90
18597;DHT22;9428;50.950;6.912;2023-02-28T05:52:35;1.80;99.90
18597;DHT22;9428;50.950;6.912;2023-02-28T05:55:22;1.70;99.90
18597;DHT22;9428;50.950;6.912;2023-02-28T05:58:11;1.60;99.90
18597;DHT22;9428;50.950;6.912;2023-02-28T06:00:59;1.90;99.90
18597;DHT22;9428;50.950;6.912;2023-02-28T06:03:47;1.80;99.90
18597;DHT22;9428;50.950;6.912;2023-02-28T06:06:34;1.80;99.90
18597;DHT22;9428;50.950;6.912;2023-02-28T06:09:22;1.80;99.90
18597;DHT22;9428;50.950;6.912;2023-02-28T06:12:10;1.80;99.90
18597;DHT22;9428;50.950;6.912;2023-02-28T06:14:59;1.80;99.90
18597;DHT22;9428;50.950;6.912;2023-02-28T06:17:46;1.90;99.90
18597;DHT22;9428;50.950;6.912;2023-02-28T06:20:34;1.90;99.90
18597;DHT22;9428;50.950;6.912;2023-02-28T06:23:22;1.80;99.90
18597;DHT22;9428;50.950;6.912;2023-02-28T06:26:09;2.00;99.90
18597;DHT22;9428;50.950;6.912;2023-02-28T06:28:56;1.80;99.90
18597;DHT22;9428;50.950;6.912;2023-02-28T06:31:45;1.50;99.90
18597;DHT22;9428;50.950;6.912;2023-02-28T06:34:33;2.20;99.90
18597;DHT22;9428;50.950;6.912;2023-02-28T06:37:20;1.60;99.90
18597;DHT22;9428;50.950;6.912;2023-02-28T06:40:09;1.60;99.90
18597;DHT22;9428;50.950;6.912;2023-02-28T06:42:56;1.50;99.90
18597;DHT22;9428;50.950;6.912;2023-02-28T06:45:44;1.40;99.90
18597;DHT22;9428;50.950;6.912;2023-02-28T06:48:32;1.40;99.90
18597;DHT22;9428;50.950;6.912;2023-02-28T06:51:20;1.50;99.90
18597;DHT22;9428;50.950;6.912;2023-02-28T06:54:10;1.50;99.90
18597;DHT22;9428;50.950;6.912;2023-02-28T06:56:58;1.50;99.90
18597;DHT22;9428;50.950;6.912;2023-02-28T06:59:45;1.60;99.90
18597;DHT22;9428;50.950;6.912;2023-02-28T07:02:32;1.50;99.90
18597;DHT22;9428;50.950;6.912;2023-02-28T07:05:21;1.60;99.90
18597;DHT22;9428;50.950;6.912;2023-02-28T07:08:08;1.50;99.90
18597;DHT22;9428;50.950;6.912;2023-02-28T07:10:56;1.50;99.90
18597;DHT22;9428;50.950;6.912;2023-02-28T07:13:43;1.60;99.90
18597;DHT22;9428;50.950;6.912;2023-02-28T07:16:32;1.60;99.90
18597;DHT22;9428;50.950;6.912;2023-02-28T07:19:20;2.30;99.90
18597;DHT22;9428;50.950;6.912;2023-02-28T07:22:08;2.40;99.90
18597;DHT22;9428;50.950;6.912;2023-02-28T07:24:55;1.70;99.90
18597;DHT22;9428;50.950;6.912;2023-02-28T07:27:43;2.40;99.90
18597;DHT22;9428;50.950;6.912;2023-02-28T07:30:30;2.10;99.90
18597;DHT22;9428;50.950;6.912;2023-02-28T07:33:17;2.50;99.90
18597;DHT22;9428;50.950;6.912;2023-02-28T07:36:07;1.80;99.90
18597;DHT22;9428;50.950;6.912;2023-02-28T07:38:56;1.60;99.90
18597;DHT22;9428;50.950;6.912;2023-02-28T07:41:45;1.80;99.90
18597;DHT22;9428;50.950;6.912;2023-02-28T07:44:32;1.90;99.90
18597;DHT22;9428;50.950;6.912;2023-02-28T07:47:19;1.90;99.90
18597;DHT22;9428;50.950;6.912;2023-02-28T07:50:08;1.90;99.90
18597;DHT22;9428;50.950;6.912;2023-02-28T07:52:56;1.90;99.90
18597;DHT22;9428;50.950;6.912;2023-02-28T07:55:45;1.90;99.90
18597;DHT22;9428;50.950;6.912;2023-02-28T07:58:32;2.10;99.90
18597;DHT22;9428;50.950;6.912;2023-02-28T08:01:19;2.10;99.90
18597;DHT22;9428;50.950;6.912;2023-02-28T08:04:07;2.10;99.90
18597;DHT22;9428;50.950;6.912;2023-02-28T08:06:54;2.10;99.90
18597;DHT22;9428;50.950;6.912;2023-02-28T08:09:42;2.20;99.90
18597;DHT22;9428;50.950;6.912;2023-02-28T08:12:31;2.40;99.90
18597;DHT22;9428;50.950;6.912;2023-02-28T08:15:18;2.20;99.90
18597;DHT22;9428;50.950;6.912;2023-02-28T08:18:06;2.40;99.90
18597;DHT22;9428;50.950;6.912;2023-02-28T08:20:53;2.40;99.90
18597;DHT22;9428;50.950;6.912;2023-02-28T08:23:40;2.30;99.90
18597;DHT22;9428;50.950;6.912;2023-02-28T08:26:27;2.80;99.90
18597;DHT22;9428;50.950;6.912;2023-02-28T08:29:16;2.40;99.90
18597;DHT22;9428;50.950;6.912;2023-02-28T08:32:04;2.50;99.90
18597;DHT22;9428;50.950;6.912;2023-02-28T08:34:51;2.50;99.90
18597;DHT22;9428;50.950;6.912;2023-02-28T08:37:38;2.70;99.90
18597;DHT22;9428;50.950;6.912;2023-02-28T08:40:26;3.10;99.90
18597;DHT22;9428;50.950;6.912;2023-02-28T08:43:13;3.10;99.90
18597;DHT22;9428;50.950;6.912;2023-02-28T08:46:02;2.70;99.90
18597;DHT22;9428;50.950;6.912;2023-02-28T08:48:51;2.70;99.90
18597;DHT22;9428;50.950;6.912;2023-02-28T08:51:39;2.80;99.90
18597;DHT22;9428;50.950;6.912;2023-02-28T08:54:26;2.90;99.90
18597;DHT22;9428;50.950;6.912;2023-02-28T08:57:16;3.40;99.90
18597;DHT22;9428;50.950;6.912;2023-02-28T09:00:04;3.10;99.90
18597;DHT22;9428;50.950;6.912;2023-02-28T09:02:53;3.00;99.90
18597;DHT22;9428;50.950;6.912;2023-02-28T09:05:40;3.10;99.90
18597;DHT22;9428;50.950;6.912;2023-02-28T09:08:30;3.10;99.90
18597;DHT22;9428;50.950;6.912;2023-02-28T09:11:18;3.20;99.90
18597;DHT22;9428;50.950;6.912;2023-02-28T09:14:05;3.90;99.90
18597;DHT22;9428;50.950;6.912;2023-02-28T09:16:53;3.30;99.50
18597;DHT22;9428;50.950;6.912;2023-02-28T09:19:41;3.30;99.30
18597;DHT22;9428;50.950;6.912;2023-02-28T09:22:29;4.00;98.70
18597;DHT22;9428;50.950;6.912;2023-02-28T09:25:16;3.30;99.00
18597;DHT22;9428;50.950;6.912;2023-02-28T09:28:04;3.30;98.80
18597;DHT22;9428;50.950;6.912;2023-02-28T09:30:53;3.30;98.50
18597;DHT22;9428;50.950;6.912;2023-02-28T09:33:41;3.30;98.20
18597;DHT22;9428;50.950;6.912;2023-02-28T09:36:29;3.40;98.10
18597;DHT22;9428;50.950;6.912;2023-02-28T09:39:17;3.50;98.50
18597;DHT22;9428;50.950;6.912;2023-02-28T09:42:04;3.60;98.30
18597;DHT22;9428;50.950;6.912;2023-02-28T09:44:53;3.50;97.30
18597;DHT22;9428;50.950;6.912;2023-02-28T09:47:44;3.60;97.90
18597;DHT22;9428;50.950;6.912;2023-02-28T09:50:35;4.60;97.60
18597;DHT22;9428;50.950;6.912;2023-02-28T09:53:27;4.30;97.20
18597;DHT22;9428;50.950;6.912;2023-02-28T09:56:22;4.10;97.10
18597;DHT22;9428;50.950;6.912;2023-02-28T09:59:19;3.70;96.60
18597;DHT22;9428;50.950;6.912;2023-02-28T10:02:20;3.70;97.40
18597;DHT22;9428;50.950;6.912;2023-02-28T10:05:11;3.80;97.10
18597;DHT22;9428;50.950;6.912;2023-02-28T10:08:08;3.70;95.80
18597;DHT22;9428;50.950;6.912;2023-02-28T10:11:01;4.40;95.90
18597;DHT22;9428;50.950;6.912;2023-02-28T10:13:54;4.20;96.10
18597;DHT22;9428;50.950;6.912;2023-02-28T10:16:50;4.40;97.10
18597;DHT22;9428;50.950;6.912;2023-02-28T10:19:44;3.90;95.60
18597;DHT22;9428;50.950;6.912;2023-02-28T10:22:37;3.90;95.70
18597;DHT22;9428;50.950;6.912;2023-02-28T10:25:27;4.60;95.40
18597;DHT22;9428;50.950;6.912;2023-02-28T10:28:17;4.00;95.50
18597;DHT22;9428;50.950;6.912;2023-02-28T10:31:04;4.30;95.70
18597;DHT22;9428;50.950;6.912;2023-02-28T10:33:52;4.60;95.80
18597;DHT22;9428;50.950;6.912;2023-02-28T10:36:39;4.00;95.00
18597;DHT22;9428;50.950;6.912;2023-02-28T10:39:40;3.90;95.00
18597;DHT22;9428;50.950;6.912;2023-02-28T10:42:29;4.00;95.00
18597;DHT22;9428;50.950;6.912;2023-02-28T10:45:18;3.90;95.20
18597;DHT22;9428;50.950;6.912;2023-02-28T10:48:36;4.00;95.50
18597;DHT22;9428;50.950;6.912;2023-02-28T10:51:24;4.00;95.00
18597;DHT22;9428;50.950;6.912;2023-02-28T10:54:16;3.90;94.40
18597;DHT22;9428;50.950;6.912;2023-02-28T10:57:07;3.90;95.40
18597;DHT22;9428;50.950;6.912;2023-02-28T11:00:12;4.10;95.20
18597;DHT22;9428;50.950;6.912;2023-02-28T11:03:24;4.10;94.80
18597;DHT22;9428;50.950;6.912;2023-02-28T11:06:23;4.00;95.00
18597;DHT22;9428;50.950;6.912;2023-02-28T11:09:23;4.10;95.10
18597;DHT22;9428;50.950;6.912;2023-02-28T11:12:21;4.80;95.60
18597;DHT22;9428;50.950;6.912;2023-02-28T11:15:22;4.10;95.00
18597;DHT22;9428;50.950;6.912;2023-02-28T11:18:21;4.30;95.10
18597;DHT22;9428;50.950;6.912;2023-02-28T11:21:16;4.40;95.70
18597;DHT22;9428;50.950;6.912;2023-02-28T11:24:06;4.40;94.20
18597;DHT22;9428;50.950;6.912;2023-02-28T11:27:00;4.40;93.90
18597;DHT22;9428;50.950;6.912;2023-02-28T11:29:48;4.20;93.70
18597;DHT22;9428;50.950;6.912;2023-02-28T11:32:35;4.30;94.80
18597;DHT22;9428;50.950;6.912;2023-02-28T11:35:27;5.20;95.60
18597;DHT22;9428;50.950;6.912;2023-02-28T11:38:15;4.20;96.20
18597;DHT22;9428;50.950;6.912;2023-02-28T11:41:21;4.20;95.60
18597;DHT22;9428;50.950;6.912;2023-02-28T11:44:25;4.10;96.30
18597;DHT22;9428;50.950;6.912;2023-02-28T11:47:19;4.10;96.50
18597;DHT22;9428;50.950;6.912;2023-02-28T11:50:31;4.30;95.80
18597;DHT22;9428;50.950;6.912;2023-02-28T11:56:38;4.50;96.30
18597;DHT22;9428;50.950;6.912;2023-02-28T11:59:38;5.40;96.50
18597;DHT22;9428;50.950;6.912;2023-02-28T12:02:30;4.50;95.70
18597;DHT22;9428;50.950;6.912;2023-02-28T12:05:24;4.30;96.30
18597;DHT22;9428;50.950;6.912;2023-02-28T12:08:27;4.60;96.50
18597;DHT22;9428;50.950;6.912;2023-02-28T12:11:28;5.10;96.90
18597;DHT22;9428;50.950;6.912;2023-02-28T12:14:31;4.80;96.40
18597;DHT22;9428;50.950;6.912;2023-02-28T12:17:32;5.40;96.10
18597;DHT22;9428;50.950;6.912;2023-02-28T12:20:30;5.10;96.00
18597;DHT22;9428;50.950;6.912;2023-02-28T12:23:34;4.70;95.80
18597;DHT22;9428;50.950;6.912;2023-02-28T12:26:34;4.60;95.40
18597;DHT22;9428;50.950;6.912;2023-02-28T12:29:25;4.70;95.80
18597;DHT22;9428;50.950;6.912;2023-02-28T12:32:18;5.60;94.90
18597;DHT22;9428;50.950;6.912;2023-02-28T12:35:13;4.90;94.10
18597;DHT22;9428;50.950;6.912;2023-02-28T12:38:05;4.90;93.70
18597;DHT22;9428;50.950;6.912;2023-02-28T12:41:00;4.90;93.90
18597;DHT22;9428;50.950;6.912;2023-02-28T12:43:52;4.90;94.30
18597;DHT22;9428;50.950;6.912;2023-02-28T12:46:45;5.00;93.80
18597;DHT22;9428;50.950;6.912;2023-02-28T12:49:39;5.30;94.50
18597;DHT22;9428;50.950;6.912;2023-02-28T12:52:35;5.00;94.00
18597;DHT22;9428;50.950;6.912;2023-02-28T12:55:32;4.90;93.50
18597;DHT22;9428;50.950;6.912;2023-02-28T12:58:27;4.90;93.50
18597;DHT22;9428;50.950;6.912;2023-02-28T13:05:00;4.90;93.70
18597;DHT22;9428;50.950;6.912;2023-02-28T13:11:24;5.00;93.50
18597;DHT22;9428;50.950;6.912;2023-02-28T13:14:26;5.00;93.50
18597;DHT22;9428;50.950;6.912;2023-02-28T13:17:19;5.10;93.70
18597;DHT22;9428;50.950;6.912;2023-02-28T13:20:16;5.20;93.30
18597;DHT22;9428;50.950;6.912;2023-02-28T13:23:04;5.10;93.50
18597;DHT22;9428;50.950;6.912;2023-02-28T13:26:11;6.00;94.00
18597;DHT22;9428;50.950;6.912;2023-02-28T13:29:00;5.20;93.60
18597;DHT22;9428;50.950;6.912;2023-02-28T13:35:44;5.20;94.30
18597;DHT22;9428;50.950;6.912;2023-02-28T13:38:37;5.30;94.40
18597;DHT22;9428;50.950;6.912;2023-02-28T13:41:48;5.20;94.10
18597;DHT22;9428;50.950;6.912;2023-02-28T13:48:18;5.40;92.00
18597;DHT22;9428;50.950;6.912;2023-02-28T13:51:35;5.30;92.30
18597;DHT22;9428;50.950;6.912;2023-02-28T13:54:37;5.20;92.10
18597;DHT22;9428;50.950;6.912;2023-02-28T13:57:39;5.30;92.00
18597;DHT22;9428;50.950;6.912;2023-02-28T14:00:37;5.30;92.10
18597;DHT22;9428;50.950;6.912;2023-02-28T14:03:38;5.60;92.20
18597;DHT22;9428;50.950;6.912;2023-02-28T14:06:29;5.80;92.80
18597;DHT22;9428;50.950;6.912;2023-02-28T14:09:24;5.40;92.20
18597;DHT22;9428;50.950;6.912;2023-02-28T14:15:55;5.40;93.30
18597;DHT22;9428;50.950;6.912;2023-02-28T14:18:49;5.40;92.90
18597;DHT22;9428;50.950;6.912;2023-02-28T14:21:40;5.60;93.30
18597;DHT22;9428;50.950;6.912;2023-02-28T14:24:50;6.00;93.10
18597;DHT22;9428;50.950;6.912;2023-02-28T14:27:47;5.50;93.80
18597;DHT22;9428;50.950;6.912;2023-02-28T14:30:53;5.40;93.10
18597;DHT22;9428;50.950;6.912;2023-02-28T14:33:59;5.40;93.70
18597;DHT22;9428;50.950;6.912;2023-02-28T14:36:50;5.40;94.50
18597;DHT22;9428;50.950;6.912;2023-02-28T14:39:43;5.50;93.60
18597;DHT22;9428;50.950;6.912;2023-02-28T14:42:33;5.60;93.30
18597;DHT22;9428;50.950;6.912;2023-02-28T14:45:22;6.20;93.70
18597;DHT22;9428;50.950;6.912;2023-02-28T14:48:10;5.60;93.30
18597;DHT22;9428;50.950;6.912;2023-02-28T14:50:58;5.50;93.30
18597;DHT22;9428;50.950;6.912;2023-02-28T14:53:48;5.60;93.80
18597;DHT22;9428;50.950;6.912;2023-02-28T14:56:38;5.60;93.00
18597;DHT22;9428;50.950;6.912;2023-02-28T14:59:28;6.20;93.00
18597;DHT22;9428;50.950;6.912;2023-02-28T15:02:19;5.70;93.00
18597;DHT22;9428;50.950;6.912;2023-02-28T15:05:26;6.30;93.70
18597;DHT22;9428;50.950;6.912;2023-02-28T15:08:15;5.60;92.70
18597;DHT22;9428;50.950;6.912;2023-02-28T15:11:05;5.70;92.70
18597;DHT22;9428;50.950;6.912;2023-02-28T15:13:55;5.80;92.40
18597;DHT22;9428;50.950;6.912;2023-02-28T15:16:43;5.80;91.40
18597;DHT22;9428;50.950;6.912;2023-02-28T15:19:33;6.20;91.60
18597;DHT22;9428;50.950;6.912;2023-02-28T15:22:28;5.80;91.70
18597;DHT22;9428;50.950;6.912;2023-02-28T15:25:18;5.80;91.50
18597;DHT22;9428;50.950;6.912;2023-02-28T15:28:14;5.80;92.10
18597;DHT22;9428;50.950;6.912;2023-02-28T15:31:21;5.80;92.20
18597;DHT22;9428;50.950;6.912;2023-02-28T15:34:19;5.80;92.50
18597;DHT22;9428;50.950;6.912;2023-02-28T15:37:26;5.80;91.80
18597;DHT22;9428;50.950;6.912;2023-02-28T15:40:16;5.70;91.90
18597;DHT22;9428;50.950;6.912;2023-02-28T15:43:05;5.70;91.70
18597;DHT22;9428;50.950;6.912;2023-02-28T15:45:56;5.70;91.80
18597;DHT22;9428;50.950;6.912;2023-02-28T15:48:51;6.70;92.30
18597;DHT22;9428;50.950;6.912;2023-02-28T15:51:39;5.70;92.30
18597;DHT22;9428;50.950;6.912;2023-02-28T15:54:29;5.80;92.60
18597;DHT22;9428;50.950;6.912;2023-02-28T15:57:21;5.90;92.60
18597;DHT22;9428;50.950;6.912;2023-02-28T16:00:12;5.90;92.70
18597;DHT22;9428;50.950;6.912;2023-02-28T16:03:00;5.90;92.40
18597;DHT22;9428;50.950;6.912;2023-02-28T16:06:09;5.90;92.40
18597;DHT22;9428;50.950;6.912;2023-02-28T16:09:10;5.80;92.60
18597;DHT22;9428;50.950;6.912;2023-02-28T16:12:01;5.80;92.80
18597;DHT22;9428;50.950;6.912;2023-02-28T16:14:52;5.90;93.20
18597;DHT22;9428;50.950;6.912;2023-02-28T16:17:39;5.90;92.80
18597;DHT22;9428;50.950;6.912;2023-02-28T16:20:29;6.30;93.30
18597;DHT22;9428;50.950;6.912;2023-02-28T16:23:17;6.60;93.20
18597;DHT22;9428;50.950;6.912;2023-02-28T16:26:05;5.80;92.90
18597;DHT22;9428;50.950;6.912;2023-02-28T16:28:53;5.80;93.30
18597;DHT22;9428;50.950;6.912;2023-02-28T16:31:42;6.00;93.00
18597;DHT22;9428;50.950;6.912;2023-02-28T16:34:30;5.80;92.80
18597;DHT22;9428;50.950;6.912;2023-02-28T16:37:18;6.40;92.80
18597;DHT22;9428;50.950;6.912;2023-02-28T16:40:09;5.80;92.70
18597;DHT22;9428;50.950;6.912;2023-02-28T16:43:05;5.70;93.00
18597;DHT22;9428;50.950;6.912;2023-02-28T16:45:55;5.80;93.00
18597;DHT22;9428;50.950;6.912;2023-02-28T16:48:44;6.00;93.20
18597;DHT22;9428;50.950;6.912;2023-02-28T16:51:31;5.80;92.80
18597;DHT22;9428;50.950;6.912;2023-02-28T16:54:18;5.80;93.30
18597;DHT22;9428;50.950;6.912;2023-02-28T16:57:16;5.70;94.00
18597;DHT22;9428;50.950;6.912;2023-02-28T17:00:06;5.70;93.50
18597;DHT22;9428;50.950;6.912;2023-02-28T17:02:55;5.70;93.50
18597;DHT22;9428;50.950;6.912;2023-02-28T17:05:45;5.70;93.70
18597;DHT22;9428;50.950;6.912;2023-02-28T17:08:32;5.60;93.90
18597;DHT22;9428;50.950;6.912;2023-02-28T17:11:20;5.60;93.80
18597;DHT22;9428;50.950;6.912;2023-02-28T17:14:09;5.60;93.90
18597;DHT22;9428;50.950;6.912;2023-02-28T17:16:57;5.60;94.40
18597;DHT22;9428;50.950;6.912;2023-02-28T17:19:45;5.50;94.50
18597;DHT22;9428;50.950;6.912;2023-02-28T17:22:36;5.50;94.70
18597;DHT22;9428;50.950;6.912;2023-02-28T17:25:25;5.50;94.80
18597;DHT22;9428;50.950;6.912;2023-02-28T17:28:12;5.50;94.80
18597;DHT22;9428;50.950;6.912;2023-02-28T17:31:01;5.40;95.30
18597;DHT22;9428;50.950;6.912;2023-02-28T17:33:48;5.50;95.10
18597;DHT22;9428;50.950;6.912;2023-02-28T17:36:35;5.40;95.60
18597;DHT22;9428;50.950;6.912;2023-02-28T17:39:23;5.40;95.40
18597;DHT22;9428;50.950;6.912;2023-02-28T17:42:10;5.40;95.40
18597;DHT22;9428;50.950;6.912;2023-02-28T17:44:58;5.40;95.40
18597;DHT22;9428;50.950;6.912;2023-02-28T17:47:48;5.40;95.60
18597;DHT22;9428;50.950;6.912;2023-02-28T17:50:35;5.40;95.70
18597;DHT22;9428;50.950;6.912;2023-02-28T17:53:23;5.30;95.80
18597;DHT22;9428;50.950;6.912;2023-02-28T17:56:12;5.30;96.10
18597;DHT22;9428;50.950;6.912;2023-02-28T17:59:00;5.20;96.20
18597;DHT22;9428;50.950;6.912;2023-02-28T18:01:49;5.10;96.90
18597;DHT22;9428;50.950;6.912;2023-02-28T18:04:38;5.10;98.30
18597;DHT22;9428;50.950;6.912;2023-02-28T18:07:25;5.00;98.60
18597;DHT22;9428;50.950;6.912;2023-02-28T18:10:15;5.60;99.90
18597;DHT22;9428;50.950;6.912;2023-02-28T18:13:05;4.20;99.90
18597;DHT22;9428;50.950;6.912;2023-02-28T18:15:53;5.00;99.90
18597;DHT22;9428;50.950;6.912;2023-02-28T18:18:40;4.90;99.90
18597;DHT22;9428;50.950;6.912;2023-02-28T18:21:29;4.80;99.90
18597;DHT22;9428;50.950;6.912;2023-02-28T18:24:17;4.80;99.90
18597;DHT22;9428;50.950;6.912;2023-02-28T18:27:05;4.80;99.90
18597;DHT22;9428;50.950;6.912;2023-02-28T18:29:52;4.90;99.90
18597;DHT22;9428;50.950;6.912;2023-02-28T18:32:40;4.80;99.90
18597;DHT22;9428;50.950;6.912;2023-02-28T18:35:28;4.70;99.90
18597;DHT22;9428;50.950;6.912;2023-02-28T18:38:23;4.60;99.90
18597;DHT22;9428;50.950;6.912;2023-02-28T18:41:11;4.70;99.90
18597;DHT22;9428;50.950;6.912;2023-02-28T18:43:59;4.60;99.90
18597;DHT22;9428;50.950;6.912;2023-02-28T18:46:47;4.50;99.90
18597;DHT22;9428;50.950;6.912;2023-02-28T18:49:35;4.60;99.90
18597;DHT22;9428;50.950;6.912;2023-02-28T18:52:26;4.50;99.90
18597;DHT22;9428;50.950;6.912;2023-02-28T18:55:14;4.30;99.90
18597;DHT22;9428;50.950;6.912;2023-02-28T18:58:03;4.30;99.90
18597;DHT22;9428;50.950;6.912;2023-02-28T19:00:51;4.50;99.90
18597;DHT22;9428;50.950;6.912;2023-02-28T19:03:38;4.40;99.90